Time;durP1;ratioP1;P1;durP2;ratioP2;P2;SDS_P1;SDS_P2;PMS_P1;PMS_P2;Temp;Humidity;BMP_temperature;BMP_pressure;BME280_temperature;BME280_humidity;BME280_pressure;Samples;Min_cycle;Max_cycle;Signal;HPM_P1;HPM_P2
2023/08/27 00:01:53;;;;;;;10.52;8.57;;;;;;;29.82;46.84;99016.31;4316599;33;34709;-68
2023/08/27 00:04:21;;;;;;;11.55;8.93;;;;;;;29.82;46.85;99018.22;4303196;33;34231;-72
2023/08/27 00:06:48;;;;;;;11.30;8.15;;;;;;;29.83;46.88;99017.13;4303138;33;34350;-68
2023/08/27 00:09:16;;;;;;;15.68;7.60;;;;;;;29.82;46.87;99026.50;4304352;33;34318;-67
2023/08/27 00:11:44;;;;;;;11.25;8.20;;;;;;;29.82;46.98;99032.81;4318380;33;34879;-68
2023/08/27 00:14:11;;;;;;;10.25;7.78;;;;;;;29.82;46.97;99027.31;4318171;33;33742;-68
2023/08/27 00:16:38;;;;;;;10.85;7.97;;;;;;;29.81;47.00;99033.09;4318136;33;34312;-68
2023/08/27 00:19:06;;;;;;;12.63;8.38;;;;;;;29.82;46.97;99035.56;4318324;33;34110;-69
2023/08/27 00:21:34;;;;;;;11.57;8.13;;;;;;;29.83;47.03;99037.19;4318308;33;34687;-69
2023/08/27 00:24:01;;;;;;;12.37;8.40;;;;;;;29.83;46.99;99036.38;4318247;33;33349;-68
2023/08/27 00:26:29;;;;;;;11.80;8.30;;;;;;;29.83;47.00;99034.44;4318057;33;34020;-68
2023/08/27 00:28:58;;;;;;;12.00;8.43;;;;;;;29.82;46.98;99041.06;4304774;33;33583;-68
2023/08/27 00:31:26;;;;;;;12.75;8.63;;;;;;;29.83;47.10;99033.63;4318146;33;34755;-68
2023/08/27 00:33:53;;;;;;;14.40;8.10;;;;;;;29.82;46.96;99034.75;4292793;33;32506;-68
2023/08/27 00:36:21;;;;;;;13.25;9.00;;;;;;;29.80;46.98;99040.53;4318318;33;33558;-68
2023/08/27 00:38:48;;;;;;;10.15;8.05;;;;;;;29.80;47.04;99036.94;4318002;33;34792;-67
2023/08/27 00:41:17;;;;;;;12.05;7.95;;;;;;;29.79;46.96;99036.12;4304872;33;34048;-68
2023/08/27 00:43:44;;;;;;;9.43;8.00;;;;;;;29.79;46.92;99021.56;4318318;33;33175;-68
2023/08/27 00:46:12;;;;;;;12.27;8.93;;;;;;;29.78;46.94;99023.47;4304782;33;34824;-68
2023/08/27 00:48:40;;;;;;;11.32;8.00;;;;;;;29.77;46.92;99019.09;4318097;33;34660;-68
2023/08/27 00:51:08;;;;;;;12.43;8.20;;;;;;;29.77;46.85;99012.78;4305092;33;34649;-68
2023/08/27 00:53:38;;;;;;;10.18;7.85;;;;;;;29.77;46.87;99021.03;4292801;33;33557;-68
2023/08/27 00:56:06;;;;;;;13.20;7.70;;;;;;;29.76;46.82;99016.66;4317796;33;33948;-68
2023/08/27 00:58:33;;;;;;;14.30;8.60;;;;;;;29.75;46.58;99010.31;4317427;33;33526;-67
2023/08/27 01:01:01;;;;;;;13.80;8.57;;;;;;;29.69;46.55;99006.78;4317263;33;34564;-68
2023/08/27 01:03:29;;;;;;;14.68;8.75;;;;;;;29.67;46.61;99006.25;4292017;33;33597;-68
2023/08/27 01:05:56;;;;;;;11.07;8.48;;;;;;;29.66;46.70;99006.56;4304068;33;33845;-68
2023/08/27 01:08:43;;;;;;;10.18;8.00;;;;;;;29.65;46.90;98999.38;4292041;33;34744;-68
2023/08/27 01:11:14;;;;;;;12.05;8.38;;;;;;;29.67;47.04;99031.00;4292758;33;33827;-67
2023/08/27 01:13:57;;;;;;;12.75;8.68;;;;;;;29.62;47.08;99025.53;4303897;33;32905;-67
2023/08/27 01:16:26;;;;;;;9.75;7.80;;;;;;;29.66;47.12;99023.06;4292361;33;34263;-67
2023/08/27 01:18:53;;;;;;;13.13;8.43;;;;;;;29.62;47.08;99031.03;4303589;33;34148;-70
2023/08/27 01:21:24;;;;;;;11.15;8.38;;;;;;;29.61;47.17;99037.66;4291587;33;34147;-67
2023/08/27 01:23:52;;;;;;;11.95;8.20;;;;;;;29.62;47.09;99041.22;4317067;33;33507;-68
2023/08/27 01:26:40;;;;;;;13.90;8.70;;;;;;;29.62;46.99;99024.72;4317211;33;33146;-68
2023/08/27 01:29:32;;;;;;;13.88;9.02;;;;;;;29.60;46.85;99035.16;4316902;33;33813;-70
2023/08/27 01:32:19;;;;;;;12.80;8.95;;;;;;;29.64;46.81;99026.06;4303465;33;34652;-67
2023/08/27 01:34:47;;;;;;;14.05;8.90;;;;;;;29.60;46.81;99019.50;4317024;33;33374;-68
2023/08/27 01:37:14;;;;;;;12.68;9.13;;;;;;;29.59;46.81;99017.84;4291568;33;33848;-69
2023/08/27 01:39:42;;;;;;;12.90;9.07;;;;;;;29.59;46.82;99020.59;4303637;33;33862;-67
2023/08/27 01:42:10;;;;;;;15.18;9.20;;;;;;;29.60;46.79;99018.69;4316750;33;34597;-68
2023/08/27 01:44:38;;;;;;;14.52;9.35;;;;;;;29.60;46.79;99018.69;4303651;33;33490;-67
2023/08/27 01:47:06;;;;;;;14.65;8.75;;;;;;;29.60;46.79;99016.75;4315672;33;34582;-69
2023/08/27 01:49:34;;;;;;;11.20;9.25;;;;;;;29.60;46.77;99014.00;4300446;33;33844;-68
2023/08/27 01:52:01;;;;;;;11.68;9.05;;;;;;;29.58;46.90;99016.22;4302818;33;33402;-68
2023/08/27 01:54:32;;;;;;;14.43;9.43;;;;;;;29.59;46.79;99009.63;4316770;33;33652;-67
2023/08/27 01:57:00;;;;;;;11.18;9.23;;;;;;;29.59;46.82;99011.53;4306451;33;171778;-67
2023/08/27 01:59:28;;;;;;;15.75;9.27;;;;;;;29.59;46.82;99015.13;4317684;33;34929;-68
2023/08/27 02:01:55;;;;;;;12.55;9.00;;;;;;;29.57;46.87;99013.78;4317893;33;34829;-68
2023/08/27 02:04:23;;;;;;;13.65;9.27;;;;;;;29.57;46.88;99022.84;4317808;33;34437;-68
2023/08/27 02:06:51;;;;;;;13.50;8.85;;;;;;;29.56;46.89;99020.34;4317530;33;35014;-68
2023/08/27 02:09:18;;;;;;;14.10;9.63;;;;;;;29.55;46.80;99019.53;4317365;33;33963;-68
2023/08/27 02:11:46;;;;;;;17.42;10.75;;;;;;;29.53;46.78;99024.47;4317559;33;33989;-67
2023/08/27 02:14:14;;;;;;;13.88;10.30;;;;;;;29.53;46.84;99018.97;4292177;33;33136;-67
2023/08/27 02:16:41;;;;;;;12.70;10.45;;;;;;;29.53;46.82;99021.72;4308029;33;34574;-67
2023/08/27 02:19:09;;;;;;;14.27;10.10;;;;;;;29.53;46.82;99018.16;4302990;33;34695;-67
2023/08/27 02:21:38;;;;;;;13.75;10.55;;;;;;;29.52;46.79;99016.50;4302844;33;34391;-68
2023/08/27 02:24:06;;;;;;;13.98;10.43;;;;;;;29.48;46.88;99019.84;4303228;33;33269;-68
2023/08/27 02:26:33;;;;;;;12.73;10.07;;;;;;;29.47;47.00;99026.44;4302747;33;33784;-68
2023/08/27 02:29:02;;;;;;;11.93;9.40;;;;;;;29.46;46.95;99023.97;4302732;33;35011;-67
2023/08/27 02:31:29;;;;;;;16.67;9.02;;;;;;;29.44;47.03;99032.50;4302092;33;34263;-67
2023/08/27 02:33:57;;;;;;;11.85;9.02;;;;;;;29.43;47.06;99025.37;4302666;33;33860;-68
2023/08/27 02:36:24;;;;;;;10.73;8.77;;;;;;;29.41;47.02;99024.81;4302784;33;33862;-68
2023/08/27 02:38:54;;;;;;;14.75;9.50;;;;;;;29.40;47.05;99030.63;4302830;33;34039;-67
2023/08/27 02:41:21;;;;;;;9.93;8.30;;;;;;;29.37;47.04;99025.69;4302717;33;34043;-68
2023/08/27 02:43:49;;;;;;;17.58;8.93;;;;;;;29.34;47.05;99027.09;4302838;33;34683;-67
2023/08/27 02:46:17;;;;;;;18.00;9.30;;;;;;;29.30;47.06;99026.00;4303891;33;33241;-68
2023/08/27 02:48:44;;;;;;;17.08;9.25;;;;;;;29.24;47.22;99029.91;4317112;33;33587;-67
2023/08/27 02:51:12;;;;;;;10.23;8.90;;;;;;;29.20;47.35;99026.06;4317255;33;34838;-68
2023/08/27 02:53:40;;;;;;;10.27;7.85;;;;;;;29.18;47.57;99031.84;4317202;33;33542;-69
2023/08/27 02:56:08;;;;;;;11.43;8.40;;;;;;;29.18;47.61;99031.84;4303901;33;33759;-68
2023/08/27 02:58:35;;;;;;;10.27;7.50;;;;;;;29.19;47.66;99033.50;4317082;33;33890;-67
2023/08/27 03:01:04;;;;;;;10.25;7.65;;;;;;;29.21;47.64;99025.78;4317188;33;34214;-68
2023/08/27 03:03:31;;;;;;;9.93;7.72;;;;;;;29.20;47.67;99029.62;4304141;33;33237;-68
2023/08/27 03:05:59;;;;;;;9.55;7.43;;;;;;;29.22;47.66;99026.59;4317320;33;33443;-68
2023/08/27 03:08:26;;;;;;;9.23;7.15;;;;;;;29.23;47.63;99025.47;4303936;33;34721;-69
2023/08/27 03:10:54;;;;;;;8.60;7.10;;;;;;;29.24;47.40;99027.16;4316852;33;34177;-68
2023/08/27 03:13:21;;;;;;;8.20;6.40;;;;;;;29.20;47.43;99035.13;4317131;33;33584;-67
2023/08/27 03:15:49;;;;;;;7.32;6.07;;;;;;;29.19;47.42;99033.50;4303630;33;33810;-68
2023/08/27 03:18:17;;;;;;;8.85;6.65;;;;;;;29.17;47.29;99038.44;4303957;33;34479;-68
2023/08/27 03:20:44;;;;;;;7.82;5.85;;;;;;;29.17;47.23;99043.13;4316978;33;34733;-68
2023/08/27 03:23:12;;;;;;;10.13;6.03;;;;;;;29.15;47.11;99046.16;4316980;33;33848;-68
2023/08/27 03:25:40;;;;;;;8.38;6.00;;;;;;;29.12;47.11;99049.47;4316764;33;34718;-68
2023/08/27 03:28:07;;;;;;;8.65;5.47;;;;;;;29.09;47.34;99051.94;4316829;33;34856;-68
2023/08/27 03:30:35;;;;;;;7.47;5.35;;;;;;;29.06;47.19;99042.34;4303587;33;35097;-67
2023/08/27 03:33:03;;;;;;;7.72;5.37;;;;;;;29.07;47.16;99048.66;4316736;33;33981;-68
2023/08/27 03:35:30;;;;;;;7.32;5.35;;;;;;;29.06;47.22;99042.34;4316818;33;33947;-69
2023/08/27 03:37:58;;;;;;;7.43;5.00;;;;;;;29.06;47.23;99047.84;4316939;33;34478;-68
2023/08/27 03:40:26;;;;;;;8.70;5.30;;;;;;;29.06;47.26;99050.59;4316791;33;34076;-67
2023/08/27 03:42:53;;;;;;;8.00;4.70;;;;;;;29.06;47.18;99056.09;4317550;33;33536;-68
2023/08/27 03:45:23;;;;;;;10.05;4.93;;;;;;;29.05;47.09;99051.72;4318538;33;33975;-68
2023/08/27 03:47:50;;;;;;;6.80;4.50;;;;;;;29.08;46.86;99051.13;4318552;33;34887;-67
2023/08/27 03:50:18;;;;;;;6.72;4.30;;;;;;;29.06;46.95;99056.09;4318368;33;34475;-68
2023/08/27 03:52:45;;;;;;;7.80;3.92;;;;;;;29.05;46.79;99056.34;4318477;33;33377;-67
2023/08/27 03:55:13;;;;;;;8.32;5.18;;;;;;;29.04;46.54;99055.53;4304970;33;34603;-68
2023/08/27 03:57:40;;;;;;;7.93;4.10;;;;;;;29.03;46.57;99058.56;4318197;33;33763;-68
2023/08/27 04:00:09;;;;;;;5.80;3.87;;;;;;;29.00;46.44;99059.94;4318466;33;33969;-68
2023/08/27 04:02:44;;;;;;;7.32;4.22;;;;;;;28.96;46.41;99059.69;4318462;33;33332;-68
2023/08/27 04:05:12;;;;;;;7.18;3.50;;;;;;;28.93;46.42;99065.72;4318660;33;33696;-67
2023/08/27 04:07:39;;;;;;;7.12;3.47;;;;;;;28.94;46.44;99066.53;4318425;33;34047;-68
2023/08/27 04:10:07;;;;;;;10.00;3.45;;;;;;;28.93;46.50;99059.41;4318544;33;34319;-68
2023/08/27 04:12:35;;;;;;;5.22;3.50;;;;;;;28.91;46.42;99065.19;4318499;33;33811;-70
2023/08/27 04:15:05;;;;;;;6.47;3.35;;;;;;;28.92;46.29;99068.75;4318257;33;33956;-68
2023/08/27 04:17:32;;;;;;;7.20;3.47;;;;;;;28.91;46.34;99075.31;4318170;33;33910;-67
2023/08/27 04:20:00;;;;;;;5.70;3.15;;;;;;;28.89;46.23;99072.88;4318228;33;34155;-67
2023/08/27 04:22:28;;;;;;;8.00;3.35;;;;;;;28.90;46.29;99077.25;4318030;33;33672;-67
2023/08/27 04:24:57;;;;;;;5.15;3.08;;;;;;;28.90;46.09;99071.75;4318368;33;34541;-67
2023/08/27 04:27:25;;;;;;;7.93;4.03;;;;;;;28.88;46.22;99060.25;4318288;33;34799;-67
2023/08/27 04:29:53;;;;;;;6.45;3.12;;;;;;;28.89;46.22;99058.31;4317964;33;34157;-68
2023/08/27 04:32:21;;;;;;;4.30;2.58;;;;;;;28.88;46.27;99051.19;4318149;33;34338;-68
2023/08/27 04:34:49;;;;;;;4.12;2.70;;;;;;;28.87;46.17;99050.38;4318195;33;34061;-68
2023/08/27 04:37:17;;;;;;;6.35;2.80;;;;;;;28.88;46.32;99056.69;4318121;33;34711;-67
2023/08/27 04:39:45;;;;;;;6.57;2.90;;;;;;;28.90;46.29;99057.22;4318353;33;33878;-68
2023/08/27 04:42:13;;;;;;;5.22;2.97;;;;;;;28.91;46.22;99064.34;4318080;33;33600;-67
2023/08/27 04:44:41;;;;;;;4.65;2.70;;;;;;;28.91;46.29;99056.09;4317892;33;34326;-68
2023/08/27 04:47:08;;;;;;;4.93;2.62;;;;;;;28.92;46.18;99055.84;4318042;33;34891;-67
2023/08/27 04:49:36;;;;;;;14.18;2.90;;;;;;;28.93;46.26;99059.41;4318227;33;34232;-67
2023/08/27 04:52:04;;;;;;;4.30;2.33;;;;;;;28.95;46.22;99048.97;4318139;33;33491;-67
2023/08/27 04:54:37;;;;;;;5.80;2.62;;;;;;;28.96;46.03;99050.66;4317589;33;33513;-68
2023/08/27 04:57:04;;;;;;;5.65;2.70;;;;;;;28.95;46.04;99049.81;4317833;33;33969;-67
2023/08/27 04:59:32;;;;;;;4.85;2.50;;;;;;;28.95;46.09;99047.06;4318323;33;33703;-69
2023/08/27 05:02:00;;;;;;;4.45;2.25;;;;;;;28.96;46.07;99053.41;4317906;33;33677;-68
2023/08/27 05:04:30;;;;;;;4.03;2.40;;;;;;;28.96;46.05;99058.88;4318130;33;33897;-67
2023/08/27 05:06:58;;;;;;;5.65;2.87;;;;;;;28.96;46.05;99058.88;4317920;33;34173;-67
2023/08/27 05:09:26;;;;;;;4.32;2.40;;;;;;;28.96;45.98;99061.63;4318182;33;34290;-68
2023/08/27 05:11:54;;;;;;;6.03;2.12;;;;;;;28.96;45.96;99075.38;4317739;33;34286;-69
2023/08/27 05:14:21;;;;;;;6.30;2.60;;;;;;;28.97;45.80;99079.75;4318226;33;33642;-67
2023/08/27 05:16:49;;;;;;;3.67;2.20;;;;;;;28.95;45.84;99076.44;4307659;33;34914;-68
2023/08/27 05:19:17;;;;;;;6.10;2.80;;;;;;;28.94;45.84;99069.28;4303431;33;35312;-69
2023/08/27 05:21:44;;;;;;;4.55;2.22;;;;;;;28.94;45.95;99083.00;4303419;33;34459;-68
2023/08/27 05:24:12;;;;;;;3.95;2.17;;;;;;;28.93;45.96;99082.19;4303206;33;33910;-67
2023/08/27 05:26:40;;;;;;;3.92;2.37;;;;;;;28.94;46.00;99077.53;4303308;33;33980;-68
2023/08/27 05:29:07;;;;;;;4.85;2.42;;;;;;;28.94;46.09;99072.84;4303182;33;34454;-68
2023/08/27 05:31:36;;;;;;;6.07;2.50;;;;;;;28.94;46.07;99061.03;4303224;33;33642;-68
2023/08/27 05:34:04;;;;;;;4.47;2.22;;;;;;;28.95;46.18;99066.28;4303294;33;33583;-67
2023/08/27 05:36:31;;;;;;;5.28;2.85;;;;;;;28.96;46.25;99056.97;4303208;33;34504;-68
2023/08/27 05:38:59;;;;;;;5.55;2.60;;;;;;;28.97;46.16;99046.78;4303099;33;35028;-67
2023/08/27 05:41:27;;;;;;;4.15;2.30;;;;;;;28.97;46.27;99046.78;4303066;33;33634;-67
2023/08/27 05:43:54;;;;;;;5.00;2.60;;;;;;;28.98;46.37;99057.47;4290017;33;34666;-68
2023/08/27 05:46:22;;;;;;;3.80;2.35;;;;;;;29.00;46.31;99048.94;4303171;33;34439;-68
2023/08/27 05:48:50;;;;;;;5.03;2.60;;;;;;;29.01;46.27;99069.84;4303036;33;34099;-68
2023/08/27 05:51:17;;;;;;;5.03;2.95;;;;;;;29.01;46.21;99072.59;4303065;33;34415;-67
2023/08/27 05:53:45;;;;;;;6.70;2.72;;;;;;;29.01;46.19;99069.84;4304258;33;33836;-67
2023/08/27 05:56:13;;;;;;;7.10;2.53;;;;;;;29.02;46.21;99071.47;4303972;33;33585;-69
2023/08/27 05:58:40;;;;;;;4.90;2.87;;;;;;;29.00;46.27;99070.94;4315374;33;34072;-68
2023/08/27 06:01:08;;;;;;;4.68;2.85;;;;;;;29.02;46.34;99073.41;4307729;33;33561;-67
2023/08/27 06:03:36;;;;;;;7.68;2.85;;;;;;;28.99;46.35;99069.28;4317663;33;34614;-68
2023/08/27 06:06:04;;;;;;;5.55;2.72;;;;;;;28.98;46.43;99071.22;4316790;33;34720;-68
2023/08/27 06:08:32;;;;;;;5.28;2.60;;;;;;;29.00;46.50;99065.44;4317513;33;34759;-68
2023/08/27 06:11:02;;;;;;;7.30;3.50;;;;;;;29.00;46.61;99062.69;4317323;33;34159;-68
2023/08/27 06:13:30;;;;;;;8.17;3.40;;;;;;;29.01;46.55;99058.88;4317548;33;33484;-67
2023/08/27 06:15:58;;;;;;;6.18;3.17;;;;;;;29.01;46.57;99061.59;4317432;33;33958;-72
2023/08/27 06:18:27;;;;;;;4.90;3.42;;;;;;;29.01;46.61;99055.28;4317881;33;34517;-66
2023/08/27 06:20:56;;;;;;;5.53;3.53;;;;;;;29.01;46.61;99049.81;4317501;33;34496;-69
2023/08/27 06:23:24;;;;;;;5.68;4.30;;;;;;;28.99;46.63;99050.06;4317472;33;34556;-66
2023/08/27 06:25:52;;;;;;;6.62;4.03;;;;;;;28.99;46.70;99047.31;4304345;33;34848;-68
2023/08/27 06:28:20;;;;;;;7.35;3.83;;;;;;;29.00;46.73;99045.38;4317429;33;33755;-67
2023/08/27 06:30:47;;;;;;;5.82;4.25;;;;;;;29.01;46.86;99044.31;4317225;33;34939;-68
2023/08/27 06:33:16;;;;;;;6.13;3.87;;;;;;;29.01;46.81;99039.63;4317549;33;33975;-68
2023/08/27 06:35:44;;;;;;;5.28;3.45;;;;;;;29.04;46.91;99038.22;4317346;33;33858;-68
2023/08/27 06:38:11;;;;;;;6.68;4.05;;;;;;;29.04;46.93;99039.06;4317315;33;33924;-68
2023/08/27 06:40:40;;;;;;;8.00;4.47;;;;;;;29.04;47.04;99035.50;4304442;33;33298;-68
2023/08/27 06:43:08;;;;;;;6.22;4.00;;;;;;;29.03;47.13;99036.59;4317379;33;33956;-69
2023/08/27 06:45:39;;;;;;;6.18;3.92;;;;;;;29.04;47.12;99043.72;4317077;33;33031;-69
2023/08/27 06:48:09;;;;;;;8.07;4.50;;;;;;;29.03;47.14;99048.41;4304392;33;34819;-69
2023/08/27 06:50:38;;;;;;;7.15;3.90;;;;;;;29.04;47.12;99038.22;4317275;33;33274;-67
2023/08/27 06:53:06;;;;;;;7.00;4.35;;;;;;;29.05;47.19;99032.47;4303954;33;33605;-69
2023/08/27 06:55:33;;;;;;;7.28;4.80;;;;;;;29.05;47.26;99039.88;4304072;33;34031;-67
2023/08/27 06:58:01;;;;;;;7.05;4.62;;;;;;;29.05;47.35;99037.12;4317290;33;34799;-69
2023/08/27 07:00:29;;;;;;;8.27;4.80;;;;;;;29.05;47.49;99037.97;4317347;33;33703;-70
2023/08/27 07:02:59;;;;;;;7.00;4.35;;;;;;;29.06;47.48;99031.38;4317395;33;33783;-68
2023/08/27 07:05:30;;;;;;;8.88;5.30;;;;;;;29.08;47.60;99040.13;4303841;33;33269;-71
2023/08/27 07:07:58;;;;;;;;;;;;;;;29.09;47.72;99035.47;4304223;33;33988;-69
2023/08/27 07:10:26;;;;;;;6.75;4.60;;;;;;;29.19;47.40;99036.25;4316760;33;33344;-68
2023/08/27 07:12:53;;;;;;;7.97;4.70;;;;;;;29.13;47.65;99039.28;4301834;33;32809;-68
2023/08/27 07:15:21;;;;;;;10.38;5.53;;;;;;;29.13;47.65;99037.34;4311110;33;33543;-68
2023/08/27 07:17:49;;;;;;;13.00;6.10;;;;;;;29.13;47.73;99042.03;4316878;33;34739;-67
2023/08/27 07:20:17;;;;;;;9.43;6.07;;;;;;;29.15;48.26;99039.84;4304310;33;33613;-71
2023/08/27 07:22:45;;;;;;;11.15;6.87;;;;;;;29.16;48.30;99045.03;4302508;33;34512;-68
2023/08/27 07:25:13;;;;;;;8.38;6.55;;;;;;;29.18;48.44;99048.31;4302324;33;33764;-69
2023/08/27 07:27:42;;;;;;;9.82;6.37;;;;;;;29.18;48.40;99048.31;4302410;33;34143;-71
2023/08/27 07:30:11;;;;;;;9.13;6.70;;;;;;;29.20;48.40;99043.38;4302574;33;34181;-68
2023/08/27 07:32:39;;;;;;;9.65;6.62;;;;;;;29.22;48.46;99041.16;4315829;33;33883;-67
2023/08/27 07:35:07;;;;;;;8.75;6.55;;;;;;;29.25;49.19;99036.22;4303536;33;34681;-69
2023/08/27 07:37:35;;;;;;;13.32;7.68;;;;;;;29.25;49.24;99025.22;4316923;33;34548;-67
2023/08/27 07:40:03;;;;;;;9.57;7.35;;;;;;;29.29;49.82;99026.31;4316897;33;33474;-67
2023/08/27 07:42:31;;;;;;;9.55;7.30;;;;;;;29.32;49.76;99020.22;4291392;33;33763;-67
2023/08/27 07:44:59;;;;;;;9.40;7.60;;;;;;;29.37;49.62;99022.94;4316705;33;34055;-67
2023/08/27 07:47:27;;;;;;;11.57;7.28;;;;;;;29.38;49.53;99011.66;4316638;33;34134;-67
2023/08/27 07:49:55;;;;;;;10.75;7.55;;;;;;;29.41;50.30;99016.56;4316620;33;34352;-70
2023/08/27 07:52:22;;;;;;;10.38;7.50;;;;;;;29.47;50.13;99007.22;4316610;33;33738;-67
2023/08/27 07:54:50;;;;;;;12.85;7.62;;;;;;;29.51;50.30;99004.69;4316731;33;34280;-68
2023/08/27 07:57:18;;;;;;;10.57;7.87;;;;;;;29.52;50.44;99006.34;4302945;33;34110;-66
2023/08/27 07:59:45;;;;;;;12.13;8.02;;;;;;;29.59;50.34;99004.13;4316457;33;33708;-67
2023/08/27 08:02:13;;;;;;;10.60;8.07;;;;;;;29.59;50.18;99006.03;4316513;33;33793;-79
2023/08/27 08:04:42;;;;;;;14.93;8.40;;;;;;;29.59;50.00;98998.62;4316507;33;33814;-80
2023/08/27 08:07:10;;;;;;;10.70;7.05;;;;;;;29.60;49.81;98997.50;4316377;33;34181;-78
2023/08/27 08:09:38;;;;;;;10.60;7.50;;;;;;;29.61;49.78;99004.66;4303196;33;32825;-79
2023/08/27 08:12:07;;;;;;;12.95;7.32;;;;;;;29.61;49.65;99009.31;4303031;33;33572;-79
2023/08/27 08:14:35;;;;;;;9.38;7.28;;;;;;;29.61;49.60;99003.81;4291593;33;34590;-78
2023/08/27 08:17:03;;;;;;;12.95;7.87;;;;;;;29.61;49.54;99003.81;4304434;33;34158;-79
2023/08/27 08:19:31;;;;;;;12.18;7.75;;;;;;;29.60;49.50;99005.75;4288517;33;33702;-79
2023/08/27 08:21:59;;;;;;;12.05;7.85;;;;;;;29.61;49.42;99006.56;4288386;33;33890;-78
2023/08/27 08:24:26;;;;;;;11.45;7.62;;;;;;;29.60;49.32;98996.69;4288860;33;34017;-79
2023/08/27 08:26:55;;;;;;;10.80;7.30;;;;;;;29.60;49.29;98999.44;4296918;33;34137;-80
2023/08/27 08:29:24;;;;;;;10.90;7.30;;;;;;;29.60;49.29;98996.69;4281405;33;33191;-79
2023/08/27 08:32:02;;;;;;;12.32;7.68;;;;;;;29.60;49.26;99002.19;4303517;33;33843;-79
2023/08/27 08:34:30;;;;;;;9.52;7.80;;;;;;;29.61;49.21;98995.56;4303640;33;33838;-79
2023/08/27 08:36:57;;;;;;;12.18;7.62;;;;;;;29.60;49.22;98991.19;4303444;33;34806;-76
2023/08/27 08:39:25;;;;;;;15.48;7.97;;;;;;;29.60;49.19;98991.19;4303551;33;33375;-70
2023/08/27 08:41:57;;;;;;;19.55;7.60;;;;;;;29.59;49.10;98987.63;4290270;33;32970;-81
2023/08/27 08:44:35;;;;;;;20.27;7.50;;;;;;;29.59;49.13;98993.13;4278932;33;34151;-78
2023/08/27 08:47:03;;;;;;;20.30;7.90;;;;;;;29.61;49.13;98999.16;4279209;33;34659;-73
2023/08/27 08:49:31;;;;;;;20.48;8.00;;;;;;;29.62;49.09;98992.56;4284837;33;32989;-80
2023/08/27 08:52:00;;;;;;;15.02;7.65;;;;;;;29.65;49.14;99000.22;4290235;33;34827;-80
2023/08/27 08:54:28;;;;;;;19.62;8.05;;;;;;;29.61;49.17;99004.66;4290282;33;34780;-80
2023/08/27 08:56:57;;;;;;;16.95;8.07;;;;;;;29.63;49.08;99002.44;4282315;33;34951;-80
2023/08/27 08:59:28;;;;;;;12.73;7.32;;;;;;;29.62;49.05;99000.00;4310873;33;33157;-80
2023/08/27 09:01:55;;;;;;;13.90;6.68;;;;;;;29.62;49.01;98997.25;4304798;33;34665;-79
2023/08/27 09:04:23;;;;;;;12.85;7.95;;;;;;;29.62;48.99;98995.31;4318098;33;34017;-79
2023/08/27 09:06:52;;;;;;;13.60;7.05;;;;;;;29.62;48.95;98991.75;4302804;33;32592;-81
2023/08/27 09:09:21;;;;;;;13.07;7.70;;;;;;;29.62;48.93;99000.81;4304869;33;33177;-79
2023/08/27 09:11:49;;;;;;;17.37;6.93;;;;;;;29.62;48.89;98998.06;4292602;33;33817;-80
2023/08/27 09:14:20;;;;;;;17.70;8.07;;;;;;;29.64;48.84;98993.06;4290018;33;33712;-79
2023/08/27 09:16:47;;;;;;;15.77;7.18;;;;;;;29.64;48.81;98987.56;4290055;33;34880;-74
2023/08/27 09:19:15;;;;;;;14.70;7.05;;;;;;;29.63;48.78;98980.44;4301150;33;33374;-80
2023/08/27 09:21:43;;;;;;;11.85;7.90;;;;;;;29.64;48.96;98982.09;4304391;33;35607;-71
2023/08/27 09:24:11;;;;;;;17.27;7.55;;;;;;;29.65;48.98;98971.91;4300642;33;33941;-78
2023/08/27 09:26:38;;;;;;;13.18;6.90;;;;;;;29.66;49.02;98973.56;4290502;33;33864;-84
2023/08/27 09:29:07;;;;;;;11.38;7.62;;;;;;;29.67;49.07;98976.00;4313868;33;34266;-75
2023/08/27 09:31:42;;;;;;;13.60;7.40;;;;;;;29.68;49.16;98980.41;4304461;33;33749;-79
2023/08/27 09:34:11;;;;;;;15.60;6.93;;;;;;;29.71;49.20;98974.34;4317357;33;33731;-70
2023/08/27 09:36:38;;;;;;;11.30;7.18;;;;;;;29.72;49.24;98969.66;4316242;33;33914;-75
2023/08/27 09:39:10;;;;;;;10.68;6.62;;;;;;;29.73;49.23;98965.78;4302914;33;33371;-73
2023/08/27 09:41:40;;;;;;;10.20;6.80;;;;;;;29.73;49.28;98963.84;4302904;33;33981;-73
2023/08/27 09:44:08;;;;;;;12.23;7.05;;;;;;;29.76;49.27;98962.47;4301292;33;33686;-77
2023/08/27 09:46:36;;;;;;;12.70;7.15;;;;;;;29.80;49.21;98971.78;4287229;33;33769;-72
2023/08/27 09:49:05;;;;;;;9.15;6.32;;;;;;;29.79;49.27;98966.56;4317718;33;33608;-86
2023/08/27 09:51:33;;;;;;;9.47;7.40;;;;;;;29.79;49.33;98967.38;4304078;33;34189;-71
2023/08/27 09:54:11;;;;;;;10.32;6.62;;;;;;;29.83;49.31;98967.62;4317467;33;33882;-71
2023/08/27 09:56:39;;;;;;;10.07;6.68;;;;;;;29.81;49.34;98962.41;4305319;33;34237;-69
2023/08/27 09:59:06;;;;;;;11.80;6.95;;;;;;;29.86;49.31;98967.06;4297872;33;33437;-69
2023/08/27 10:01:34;;;;;;;9.60;6.43;;;;;;;29.85;49.32;98962.66;4302907;33;33627;-69
2023/08/27 10:04:07;;;;;;;11.95;7.12;;;;;;;29.85;49.35;98965.41;4312569;33;34857;-73
2023/08/27 10:06:36;;;;;;;9.40;6.65;;;;;;;29.87;49.36;98971.44;4301536;33;34143;-73
2023/08/27 10:09:04;;;;;;;9.00;6.30;;;;;;;29.87;49.33;98969.50;4312974;33;34403;-72
2023/08/27 10:11:32;;;;;;;10.32;6.68;;;;;;;29.89;49.31;98952.69;4303688;33;33742;-71
2023/08/27 10:14:00;;;;;;;16.12;6.50;;;;;;;29.91;49.29;98958.75;4304035;33;33998;-74
2023/08/27 10:16:28;;;;;;;10.98;6.47;;;;;;;29.90;49.32;98963.44;4286698;33;33657;-75
2023/08/27 10:18:57;;;;;;;10.20;6.47;;;;;;;29.93;49.24;98962.03;4289822;33;34217;-76
2023/08/27 10:21:24;;;;;;;9.90;6.55;;;;;;;29.93;49.18;98962.84;4299597;33;33781;-75
2023/08/27 10:23:53;;;;;;;10.20;6.78;;;;;;;29.94;49.11;98953.50;4304168;33;33544;-70
2023/08/27 10:26:22;;;;;;;7.12;5.72;;;;;;;29.94;49.09;98952.69;4292362;33;33855;-75
2023/08/27 10:29:30;;;;;;;12.98;6.25;;;;;;;29.93;49.08;98949.09;4308684;33;33179;-74
2023/08/27 10:31:58;;;;;;;10.63;6.00;;;;;;;29.98;48.98;98942.72;4292132;33;33765;-72
2023/08/27 10:34:28;;;;;;;8.38;6.15;;;;;;;29.97;49.06;98946.56;4304114;33;34028;-76
2023/08/27 10:36:58;;;;;;;8.90;6.43;;;;;;;29.98;49.05;98942.72;4291985;33;32976;-73
2023/08/27 10:39:47;;;;;;;9.82;6.87;;;;;;;30.00;49.00;98937.75;4284218;33;33785;-72
2023/08/27 10:42:36;;;;;;;8.75;5.72;;;;;;;30.00;49.00;98940.50;4306085;33;33146;-76
2023/08/27 10:45:27;;;;;;;9.70;6.70;;;;;;;30.03;48.97;98937.19;4306510;33;33800;-69
2023/08/27 10:48:03;;;;;;;11.90;6.78;;;;;;;30.04;48.96;98932.50;4304236;33;34786;-69
2023/08/27 10:50:50;;;;;;;9.57;5.80;;;;;;;30.05;48.94;98932.19;4305927;33;34066;-71
2023/08/27 10:53:50;;;;;;;10.30;6.30;;;;;;;30.04;48.94;98930.56;4293854;33;33924;-74
2023/08/27 10:56:31;;;;;;;12.30;6.22;;;;;;;30.09;48.84;98930.50;4317107;33;33991;-76
2023/08/27 10:59:01;;;;;;;9.95;6.35;;;;;;;30.07;48.90;98923.66;4316909;33;34285;-73
2023/08/27 11:02:00;;;;;;;8.10;5.90;;;;;;;30.06;48.92;98920.06;4304988;33;34490;-73
2023/08/27 11:04:35;;;;;;;7.45;5.87;;;;;;;30.10;48.85;98917.56;4303598;33;34325;-74
2023/08/27 11:07:15;;;;;;;10.38;7.05;;;;;;;30.11;48.86;98920.00;4304152;33;33718;-75
2023/08/27 11:09:49;;;;;;;8.02;5.78;;;;;;;30.11;48.88;98913.69;4303637;33;33909;-77
2023/08/27 11:12:28;;;;;;;9.00;6.50;;;;;;;30.10;48.89;98918.37;4317085;33;33492;-82
2023/08/27 11:15:08;;;;;;;10.30;6.47;;;;;;;30.10;48.92;98912.88;4292068;33;33443;-81
2023/08/27 11:17:36;;;;;;;8.85;6.40;;;;;;;30.10;48.91;98912.88;4304863;33;33855;-76
2023/08/27 11:20:25;;;;;;;7.10;5.87;;;;;;;30.11;48.90;98917.25;4294524;33;34740;-72
2023/08/27 11:23:14;;;;;;;10.45;6.28;;;;;;;30.12;48.87;98910.66;4306398;33;33317;-76
2023/08/27 11:26:01;;;;;;;9.98;6.30;;;;;;;30.14;48.87;98918.66;4295747;33;33605;-75
2023/08/27 11:29:09;;;;;;;8.77;5.93;;;;;;;30.15;48.81;98896.34;4300365;33;33847;-76
2023/08/27 11:32:00;;;;;;;8.73;6.18;;;;;;;30.14;48.75;98902.97;4295788;33;33088;-75
2023/08/27 11:35:08;;;;;;;7.90;5.60;;;;;;;30.13;48.72;98893.06;4308153;33;34166;-76
2023/08/27 11:37:55;;;;;;;7.03;5.70;;;;;;;30.13;48.66;98898.59;4305788;33;33799;-75
2023/08/27 11:41:04;;;;;;;8.00;5.40;;;;;;;30.12;48.67;98902.38;4295603;33;33142;-76
2023/08/27 11:43:55;;;;;;;8.02;6.10;;;;;;;30.12;48.61;98909.81;4305799;33;33888;-76